Pacific Dawn — 3ECJ9 — position and weather

sailwx.info

Track history (hours):
 
Tides and Currents Weather Stations Pressure Air Temp Water Temp Dewpoint Dewpoint Depression Visibility Wind Speed Wind Dir Waves Ship Positions

Pacific Dawn

Last reported at 2016-Jun-20 22:22 UTC. Time now 2016-Jun-28 09:47 UTC.
Position N 01°16' E 104°12'.

Length 239 m; draft 13.6 m.

Type: Tanker. MMSI: 371361000.

Date/timePositionNaut miles runAvg speedWind from/ knotsBaromVisibWave heightAir tempDewpointWater temp
2016-Jun-20 22:22N 01°16' E 104°12'1012.5
2016-Jun-20 21:33N 01°14' E 104°02'7 6.8
2016-Jun-20 20:33N 01°13' E 103°56'92 9.2
2016-Jun-20 10:33N 01°46' E 102°30'1211.4
2016-Jun-20 09:32N 01°51' E 102°20'1010.7
2016-Jun-20 08:33N 01°57' E 102°11'12 9.5
2016-Jun-20 07:15N 02°09' E 102°09'1 0.1
2016-Jun-19 22:24N 02°10' E 102°09'0 0.2
2016-Jun-19 21:24N 02°10' E 102°09'0 0.1
2016-Jun-19 19:34N 02°10' E 102°09'0 0.0
2016-Jun-19 18:33N 02°10' E 102°09'0 0.0
2016-Jun-19 16:26N 02°10' E 102°09'0 0.0
2016-Jun-19 15:28N 02°10' E 102°09'3 0.2
2016-Jun-18 23:31N 02°08' E 102°11'8 7.1
2016-Jun-18 22:26N 02°01' E 102°13'910.3
2016-Jun-18 21:33N 01°56' E 102°21'1110.9
2016-Jun-18 20:33N 01°51' E 102°30'1111.5
2016-Jun-18 19:33N 01°46' E 102°41'1212.0
2016-Jun-18 18:33N 01°41' E 102°52'5711.2
2016-Jun-18 13:29N 01°11' E 103°40'9 9.9
2016-Jun-18 12:33N 01°11' E 103°49'1312.9
2016-Jun-18 11:33N 01°15' E 104°01'  
2016-Jun-12 00:33N 01°16' E 104°06'1010.1
2016-Jun-11 23:34N 01°17' E 103°56'1 0.8
2016-Jun-11 22:32N 01°17' E 103°55'0 0.0
2016-Jun-11 21:32N 01°17' E 103°55'0 0.0
2016-Jun-11 20:32N 01°17' E 103°55'0 0.0
2016-Jun-11 19:29N 01°17' E 103°55'0 0.0
2016-Jun-11 18:59N 01°17' E 103°55'0 0.1
2016-Jun-11 18:26N 01°17' E 103°56'0 0.1
2016-Jun-11 17:32N 01°17' E 103°55'0 0.1
2016-Jun-11 16:20N 01°17' E 103°55'0 0.1
2016-Jun-11 15:32N 01°17' E 103°55'0 0.0
2016-Jun-11 14:32N 01°17' E 103°55'0 0.0
2016-Jun-11 13:26N 01°17' E 103°55'0 0.1
2016-Jun-11 12:26N 01°17' E 103°55'0 0.0
2016-Jun-11 11:20N 01°17' E 103°55'0 0.0
2016-Jun-11 10:32N 01°17' E 103°55'0 0.0
2016-Jun-11 09:32N 01°17' E 103°55'0 0.0
2016-Jun-11 08:32N 01°17' E 103°55'0 0.5
2016-Jun-11 07:32N 01°17' E 103°55'0 0.0
2016-Jun-11 06:20N 01°17' E 103°55'0 0.1
2016-Jun-11 04:26N 01°17' E 103°55'0 0.1
2016-Jun-11 03:26N 01°17' E 103°55'0 0.0
2016-Jun-11 02:29N 01°17' E 103°55'0 0.1
2016-Jun-11 01:14N 01°17' E 103°55'0 0.0
2016-Jun-11 00:32N 01°17' E 103°55'0 0.0
2016-Jun-10 23:32N 01°17' E 103°55'2 2.0
2016-Jun-10 22:34N 01°16' E 103°57'  
Track history (hours):
 
Tides and Currents Weather Stations Pressure Air Temp Water Temp Dewpoint Dewpoint Depression Visibility Wind Speed Wind Dir Waves Ship Positions

Pacific Dawn

Last reported at 2016-Jun-20 22:22 UTC. Time now 2016-Jun-28 09:47 UTC.
Position N 01°16' E 104°12'.

Length 239 m; draft 13.6 m.

Type: Tanker. MMSI: 371361000.

Date/timePositionNaut miles runAvg speedWind from/ knotsBaromVisibWave heightAir tempDewpointWater temp
2016-Jun-20 22:22N 01°16' E 104°12'1012.5
2016-Jun-20 21:33N 01°14' E 104°02'7 6.8
2016-Jun-20 20:33N 01°13' E 103°56'92 9.2
2016-Jun-20 10:33N 01°46' E 102°30'1211.4
2016-Jun-20 09:32N 01°51' E 102°20'1010.7
2016-Jun-20 08:33N 01°57' E 102°11'12 9.5
2016-Jun-20 07:15N 02°09' E 102°09'1 0.1
2016-Jun-19 22:24N 02°10' E 102°09'0 0.2
2016-Jun-19 21:24N 02°10' E 102°09'0 0.1
2016-Jun-19 19:34N 02°10' E 102°09'0 0.0
2016-Jun-19 18:33N 02°10' E 102°09'0 0.0
2016-Jun-19 16:26N 02°10' E 102°09'0 0.0
2016-Jun-19 15:28N 02°10' E 102°09'3 0.2
2016-Jun-18 23:31N 02°08' E 102°11'8 7.1
2016-Jun-18 22:26N 02°01' E 102°13'910.3
2016-Jun-18 21:33N 01°56' E 102°21'1110.9
2016-Jun-18 20:33N 01°51' E 102°30'1111.5
2016-Jun-18 19:33N 01°46' E 102°41'1212.0
2016-Jun-18 18:33N 01°41' E 102°52'5711.2
2016-Jun-18 13:29N 01°11' E 103°40'9 9.9
2016-Jun-18 12:33N 01°11' E 103°49'1312.9
2016-Jun-18 11:33N 01°15' E 104°01'  
2016-Jun-12 00:33N 01°16' E 104°06'1010.1
2016-Jun-11 23:34N 01°17' E 103°56'1 0.8
2016-Jun-11 22:32N 01°17' E 103°55'0 0.0
2016-Jun-11 21:32N 01°17' E 103°55'0 0.0
2016-Jun-11 20:32N 01°17' E 103°55'0 0.0
2016-Jun-11 19:29N 01°17' E 103°55'0 0.0
2016-Jun-11 18:59N 01°17' E 103°55'0 0.1
2016-Jun-11 18:26N 01°17' E 103°56'0 0.1
2016-Jun-11 17:32N 01°17' E 103°55'0 0.1
2016-Jun-11 16:20N 01°17' E 103°55'0 0.1
2016-Jun-11 15:32N 01°17' E 103°55'0 0.0
2016-Jun-11 14:32N 01°17' E 103°55'0 0.0
2016-Jun-11 13:26N 01°17' E 103°55'0 0.1
2016-Jun-11 12:26N 01°17' E 103°55'0 0.0
2016-Jun-11 11:20N 01°17' E 103°55'0 0.0
2016-Jun-11 10:32N 01°17' E 103°55'0 0.0
2016-Jun-11 09:32N 01°17' E 103°55'0 0.0
2016-Jun-11 08:32N 01°17' E 103°55'0 0.5
2016-Jun-11 07:32N 01°17' E 103°55'0 0.0
2016-Jun-11 06:20N 01°17' E 103°55'0 0.1
2016-Jun-11 04:26N 01°17' E 103°55'0 0.1
2016-Jun-11 03:26N 01°17' E 103°55'0 0.0
2016-Jun-11 02:29N 01°17' E 103°55'0 0.1
2016-Jun-11 01:14N 01°17' E 103°55'0 0.0
2016-Jun-11 00:32N 01°17' E 103°55'0 0.0
2016-Jun-10 23:32N 01°17' E 103°55'2 2.0
2016-Jun-10 22:34N 01°16' E 103°57'  

Dump ship's entire track history